Time;durP1;ratioP1;P1;durP2;ratioP2;P2;SDS_P1;SDS_P2;PMS_P1;PMS_P2;Temp;Humidity;BMP_temperature;BMP_pressure;BME280_temperature;BME280_humidity;BME280_pressure;Samples;Min_cycle;Max_cycle;Signal;HPM_P1;HPM_P2
2023/01/20 00:01:10;;;;;;;3.03;1.30;;;0.60;98.10;;;;;;5098339;28;20040;-69
2023/01/20 00:03:37;;;;;;;2.85;1.17;;;0.50;98.30;;;;;;5092641;28;20020;-69
2023/01/20 00:06:04;;;;;;;4.00;1.65;;;0.50;98.40;;;;;;5095932;28;20485;-69
2023/01/20 00:08:29;;;;;;;5.20;1.63;;;0.50;98.30;;;;;;5099561;28;20130;-70
2023/01/20 00:10:55;;;;;;;3.22;1.23;;;0.60;97.80;;;;;;5097122;28;20219;-69
2023/01/20 00:13:21;;;;;;;2.90;1.30;;;0.50;98.30;;;;;;5087156;28;20122;-69
2023/01/20 00:15:47;;;;;;;3.15;1.58;;;0.50;97.90;;;;;;5100011;28;20024;-69
2023/01/20 00:18:13;;;;;;;5.50;1.85;;;0.60;98.00;;;;;;5099129;28;20531;-69
2023/01/20 00:20:39;;;;;;;3.40;1.60;;;0.40;98.60;;;;;;5097073;28;20385;-69
2023/01/20 00:23:05;;;;;;;2.90;1.27;;;0.30;98.90;;;;;;5106790;28;20028;-69
2023/01/20 00:25:31;;;;;;;3.33;1.52;;;0.40;98.40;;;;;;5101712;28;20471;-69
2023/01/20 00:27:56;;;;;;;4.25;1.85;;;0.30;98.60;;;;;;5098770;28;20089;-69
2023/01/20 00:30:22;;;;;;;3.30;1.60;;;0.40;98.20;;;;;;5104494;28;20034;-69
2023/01/20 00:32:48;;;;;;;1.70;0.90;;;0.60;97.90;;;;;;5099242;28;20049;-69
2023/01/20 00:35:13;;;;;;;3.47;1.75;;;0.60;97.80;;;;;;5102741;28;20031;-69
2023/01/20 00:37:41;;;;;;;5.30;1.52;;;0.80;97.80;;;;;;5093706;28;20040;-69
2023/01/20 00:40:08;;;;;;;4.03;1.65;;;0.60;97.60;;;;;;5099363;28;20059;-69
2023/01/20 00:42:33;;;;;;;4.25;1.35;;;0.60;97.80;;;;;;5099795;28;20031;-69
2023/01/20 00:44:59;;;;;;;5.07;1.48;;;0.50;98.00;;;;;;5102512;28;20187;-69
2023/01/20 00:47:24;;;;;;;3.63;1.70;;;0.70;97.50;;;;;;5095797;28;20032;-69
2023/01/20 00:49:50;;;;;;;3.75;1.98;;;0.90;97.20;;;;;;5103197;28;20111;-69
2023/01/20 00:52:17;;;;;;;3.45;1.70;;;0.80;97.10;;;;;;5106821;28;20028;-69
2023/01/20 00:54:43;;;;;;;3.17;1.48;;;0.80;97.40;;;;;;5084423;28;20020;-69
2023/01/20 00:57:09;;;;;;;2.95;1.38;;;0.60;97.90;;;;;;5107302;28;20028;-69
2023/01/20 00:59:35;;;;;;;4.22;1.60;;;0.50;98.50;;;;;;5106552;28;20447;-69
2023/01/20 01:02:01;;;;;;;4.30;1.63;;;0.60;97.60;;;;;;5106549;28;20134;-69
2023/01/20 01:04:26;;;;;;;3.40;1.55;;;0.80;97.10;;;;;;5105364;28;20114;-69
2023/01/20 01:06:52;;;;;;;3.85;1.60;;;0.70;97.40;;;;;;5104844;28;20544;-69
2023/01/20 01:09:18;;;;;;;3.97;1.45;;;1.00;96.90;;;;;;5107204;28;20028;-69
2023/01/20 01:11:44;;;;;;;3.28;1.33;;;1.10;96.80;;;;;;5098011;28;20028;-69
2023/01/20 01:14:09;;;;;;;4.88;1.90;;;0.90;97.10;;;;;;5101360;28;20024;-69
2023/01/20 01:16:35;;;;;;;4.82;2.25;;;0.70;97.30;;;;;;5103770;28;20028;-69
2023/01/20 01:19:01;;;;;;;6.40;2.00;;;0.70;97.30;;;;;;5104470;28;20077;-69
2023/01/20 01:21:27;;;;;;;3.88;1.40;;;0.70;97.70;;;;;;5106166;28;20549;-69
2023/01/20 01:23:52;;;;;;;17.15;2.42;;;0.50;97.90;;;;;;5103332;28;20117;-69
2023/01/20 01:26:18;;;;;;;3.08;1.40;;;0.60;97.70;;;;;;5107300;28;20062;-69
2023/01/20 01:28:47;;;;;;;5.47;1.95;;;0.30;98.40;;;;;;5096566;28;20378;-69
2023/01/20 01:31:13;;;;;;;6.60;1.88;;;0.40;97.90;;;;;;5102084;28;20093;-69
2023/01/20 01:33:39;;;;;;;4.43;2.38;;;0.60;97.90;;;;;;5108029;28;20474;-69
2023/01/20 01:36:07;;;;;;;3.58;1.35;;;0.60;98.20;;;;;;5103395;28;20079;-69
2023/01/20 01:38:33;;;;;;;4.40;1.88;;;0.20;99.00;;;;;;5099725;28;20027;-69
2023/01/20 01:40:59;;;;;;;4.97;1.80;;;0.30;98.50;;;;;;5105558;28;20044;-69
2023/01/20 01:43:31;;;;;;;3.53;1.60;;;0.60;97.50;;;;;;5102657;28;21016;-69
2023/01/20 01:45:57;;;;;;;4.43;1.65;;;0.50;98.00;;;;;;5100852;28;20597;-69
2023/01/20 01:48:32;;;;;;;3.03;1.38;;;0.20;99.30;;;;;;5107198;28;20479;-69
2023/01/20 01:51:04;;;;;;;3.15;1.58;;;0.20;99.00;;;;;;5108758;28;20385;-69
2023/01/20 01:53:40;;;;;;;3.28;1.58;;;0.00;99.40;;;;;;5104491;28;20031;-69
2023/01/20 01:56:06;;;;;;;3.60;1.50;;;0.30;98.40;;;;;;5105849;28;20091;-69
2023/01/20 01:58:36;;;;;;;3.83;1.63;;;0.20;98.30;;;;;;5108988;28;20107;-69
2023/01/20 02:01:02;;;;;;;4.15;1.70;;;0.00;99.20;;;;;;5099628;28;20485;-69
2023/01/20 02:03:36;;;;;;;5.95;1.70;;;0.00;99.50;;;;;;5101682;27;20097;-69
2023/01/20 02:06:03;;;;;;;3.80;1.67;;;0.00;99.20;;;;;;5102431;28;20035;-69
2023/01/20 02:08:29;;;;;;;4.22;1.52;;;0.20;98.40;;;;;;5101059;28;20035;-69
2023/01/20 02:10:54;;;;;;;4.05;1.70;;;0.20;98.60;;;;;;5104560;28;20032;-69
2023/01/20 02:13:20;;;;;;;5.47;1.63;;;0.40;98.00;;;;;;5101392;28;20039;-69
2023/01/20 02:16:09;;;;;;;5.55;1.60;;;0.50;98.00;;;;;;5099725;28;20020;-69
2023/01/20 02:18:49;;;;;;;3.38;1.60;;;0.50;97.70;;;;;;5093179;28;20039;-69
2023/01/20 02:21:21;;;;;;;5.28;1.95;;;0.50;97.80;;;;;;5102323;28;20092;-69
2023/01/20 02:23:49;;;;;;;3.15;1.60;;;0.50;97.60;;;;;;5097129;28;20082;-69
2023/01/20 02:26:57;;;;;;;3.50;1.65;;;0.40;97.90;;;;;;5104145;28;21026;-69
2023/01/20 02:29:42;;;;;;;2.63;1.35;;;0.50;97.80;;;;;;5064993;28;20036;-69
2023/01/20 02:32:30;;;;;;;3.30;1.40;;;0.50;97.90;;;;;;5105545;28;20109;-69
2023/01/20 02:35:04;;;;;;;3.47;2.10;;;0.40;98.10;;;;;;5098430;28;20111;-69
2023/01/20 02:38:07;;;;;;;9.93;1.70;;;0.30;97.90;;;;;;5103211;28;20119;-69
2023/01/20 02:40:38;;;;;;;4.60;2.28;;;0.50;98.00;;;;;;5064335;28;20521;-69
2023/01/20 02:46:53;;;;;;;5.90;1.58;;;0.10;99.30;;;;;;5099993;28;20457;-69
2023/01/20 02:49:29;;;;;;;4.78;1.95;;;0.00;99.10;;;;;;5099000;28;20082;-69
2023/01/20 02:52:07;;;;;;;3.47;1.60;;;0.30;97.50;;;;;;5107317;28;20035;-69
2023/01/20 02:54:36;;;;;;;3.67;2.10;;;0.30;98.10;;;;;;5106398;28;20469;-69
2023/01/20 02:57:05;;;;;;;3.38;1.40;;;0.60;97.20;;;;;;5105270;28;20032;-69
2023/01/20 02:59:36;;;;;;;3.03;1.20;;;0.60;97.40;;;;;;5107327;28;20055;-69
2023/01/20 03:02:24;;;;;;;3.08;1.40;;;0.20;98.80;;;;;;5100741;28;20035;-68
2023/01/20 03:04:56;;;;;;;2.60;1.42;;;0.50;97.80;;;;;;5101843;28;20421;-68
2023/01/20 03:07:24;;;;;;;3.30;1.88;;;0.30;98.00;;;;;;5097769;28;20581;-68
2023/01/20 03:09:55;;;;;;;3.63;1.73;;;0.20;98.50;;;;;;5105902;27;20040;-68
2023/01/20 03:12:27;;;;;;;3.85;1.65;;;0.30;97.50;;;;;;5102214;28;20566;-68
2023/01/20 03:14:53;;;;;;;3.50;1.45;;;0.30;97.50;;;;;;5098040;28;20386;-68
2023/01/20 03:17:19;;;;;;;3.55;1.38;;;0.50;97.30;;;;;;5096650;28;20041;-69
2023/01/20 03:19:45;;;;;;;3.08;1.40;;;0.50;96.90;;;;;;5104068;28;20081;-68
2023/01/20 03:22:11;;;;;;;6.28;1.60;;;0.60;96.80;;;;;;5100030;28;20036;-68
2023/01/20 03:24:39;;;;;;;3.03;1.25;;;0.50;97.00;;;;;;5101572;28;20145;-68
2023/01/20 03:27:05;;;;;;;3.58;1.60;;;0.50;96.50;;;;;;5102003;28;20076;-67
2023/01/20 03:29:31;;;;;;;3.90;1.42;;;0.60;96.50;;;;;;5105357;28;20118;-67
2023/01/20 03:31:59;;;;;;;4.55;1.80;;;0.40;97.80;;;;;;5099562;28;20459;-67
2023/01/20 03:34:28;;;;;;;2.92;1.30;;;0.30;97.10;;;;;;5100587;28;20459;-68
2023/01/20 03:36:55;;;;;;;3.30;1.50;;;0.50;96.70;;;;;;5105011;28;20074;-68
2023/01/20 03:39:22;;;;;;;3.85;1.83;;;0.60;97.00;;;;;;5102842;28;20059;-68
2023/01/20 03:41:51;;;;;;;2.85;1.25;;;0.60;96.60;;;;;;5100781;28;20079;-67
2023/01/20 03:44:40;;;;;;;3.25;1.38;;;0.60;96.50;;;;;;5098858;28;20039;-68
2023/01/20 03:47:20;;;;;;;4.40;1.23;;;0.40;96.70;;;;;;5094103;28;20031;-68
2023/01/20 03:50:04;;;;;;;3.25;1.30;;;0.50;96.40;;;;;;5096484;28;20028;-68
2023/01/20 03:52:48;;;;;;;2.75;1.23;;;0.50;96.40;;;;;;5104606;28;20058;-68
2023/01/20 03:55:35;;;;;;;4.20;1.25;;;0.60;96.30;;;;;;5098405;28;20030;-69
2023/01/20 03:58:07;;;;;;;3.30;1.50;;;0.30;96.40;;;;;;5104938;28;20031;-68
2023/01/20 04:00:35;;;;;;;3.72;1.35;;;0.30;96.60;;;;;;5100120;28;20036;-69
2023/01/20 04:03:06;;;;;;;2.15;1.25;;;0.50;96.30;;;;;;5093930;28;20404;-69
2023/01/20 04:05:33;;;;;;;3.40;1.50;;;0.40;96.30;;;;;;5095872;28;20052;-69
2023/01/20 04:08:04;;;;;;;4.03;1.60;;;0.30;96.50;;;;;;5094299;28;20036;-69
2023/01/20 04:10:33;;;;;;;3.33;1.30;;;0.30;96.60;;;;;;5098101;28;20053;-69
2023/01/20 04:12:59;;;;;;;2.90;1.35;;;0.20;96.60;;;;;;5093157;28;20031;-69
2023/01/20 04:15:27;;;;;;;3.70;1.45;;;0.20;96.70;;;;;;5092574;28;20035;-69
2023/01/20 04:17:53;;;;;;;2.28;1.30;;;0.10;96.80;;;;;;5089288;28;20035;-69
2023/01/20 04:20:19;;;;;;;3.45;1.60;;;0.20;96.80;;;;;;5095078;28;20028;-69
2023/01/20 04:22:52;;;;;;;3.10;1.50;;;0.20;96.70;;;;;;5090413;28;20067;-69
2023/01/20 04:25:25;;;;;;;3.45;1.60;;;0.20;96.60;;;;;;5090543;28;20036;-69
2023/01/20 04:27:51;;;;;;;3.47;1.98;;;0.20;96.50;;;;;;5094761;28;20638;-69
2023/01/20 04:30:17;;;;;;;4.28;1.45;;;0.20;96.50;;;;;;5095637;28;20034;-69
2023/01/20 04:32:42;;;;;;;4.22;1.25;;;0.00;97.40;;;;;;5100748;28;20024;-69
2023/01/20 04:35:16;;;;;;;2.72;1.33;;;-0.20;97.30;;;;;;5102732;28;20035;-69
2023/01/20 04:37:42;;;;;;;2.13;1.27;;;-0.20;97.20;;;;;;5101453;28;20101;-69
2023/01/20 04:40:09;;;;;;;4.88;1.27;;;-0.10;96.90;;;;;;5096884;28;20028;-69
2023/01/20 04:42:35;;;;;;;2.20;1.25;;;-0.10;97.10;;;;;;5103429;28;20063;-69
2023/01/20 04:45:00;;;;;;;3.72;1.60;;;-0.10;97.00;;;;;;5099027;28;20059;-69
2023/01/20 04:47:30;;;;;;;5.32;2.40;;;0.00;96.50;;;;;;5100676;28;20032;-69
2023/01/20 04:49:55;;;;;;;3.72;1.70;;;-0.10;96.80;;;;;;5094039;28;20036;-69
2023/01/20 04:52:21;;;;;;;2.47;1.20;;;-0.20;97.60;;;;;;5103322;28;20147;-69
2023/01/20 04:54:47;;;;;;;3.08;1.23;;;-0.20;97.30;;;;;;5092614;28;20593;-69
2023/01/20 04:57:12;;;;;;;2.97;1.30;;;-0.10;97.70;;;;;;5100070;28;20520;-69
2023/01/20 04:59:38;;;;;;;2.95;1.50;;;-0.40;97.70;;;;;;5099914;28;20584;-69
2023/01/20 05:02:04;;;;;;;3.85;1.25;;;-0.30;97.10;;;;;;5098510;28;20046;-69
2023/01/20 05:04:29;;;;;;;2.10;1.15;;;-0.20;96.70;;;;;;5095368;28;20115;-69
2023/01/20 05:06:55;;;;;;;1.65;0.85;;;-0.20;96.90;;;;;;5091418;28;20061;-69
2023/01/20 05:09:21;;;;;;;4.72;1.58;;;0.00;97.00;;;;;;5103957;28;20028;-69
2023/01/20 05:11:47;;;;;;;2.83;1.40;;;-0.20;98.30;;;;;;5095630;28;20024;-69
2023/01/20 05:14:13;;;;;;;2.75;1.15;;;-0.30;97.80;;;;;;5100895;28;20532;-69
2023/01/20 05:16:39;;;;;;;3.90;1.67;;;-0.20;97.40;;;;;;5104471;28;20027;-69
2023/01/20 05:19:04;;;;;;;6.88;2.67;;;-0.30;97.00;;;;;;5095129;28;20425;-69
2023/01/20 05:21:30;;;;;;;13.45;6.25;;;-0.40;97.30;;;;;;5097121;28;20070;-69
2023/01/20 05:23:56;;;;;;;3.30;1.60;;;-0.20;96.90;;;;;;5098946;28;20032;-69
2023/01/20 05:26:23;;;;;;;3.63;1.73;;;-0.20;97.40;;;;;;5082676;28;20355;-69
2023/01/20 05:28:48;;;;;;;4.18;2.30;;;-0.40;98.20;;;;;;5097950;28;20038;-69
2023/01/20 05:31:14;;;;;;;5.05;1.70;;;-0.60;98.10;;;;;;5098070;28;20412;-69
2023/01/20 05:33:40;;;;;;;3.22;1.20;;;-0.50;97.50;;;;;;5099652;28;20042;-69
2023/01/20 05:36:07;;;;;;;3.03;1.50;;;-0.70;97.50;;;;;;5097274;28;20607;-69
2023/01/20 05:38:33;;;;;;;3.05;1.33;;;-0.50;97.80;;;;;;5095990;28;20106;-69
2023/01/20 05:41:04;;;;;;;4.00;1.20;;;-0.50;98.00;;;;;;5096309;28;20115;-69
2023/01/20 05:43:30;;;;;;;2.70;1.40;;;-0.70;98.90;;;;;;5098104;28;20034;-69
2023/01/20 05:45:56;;;;;;;2.92;1.42;;;-0.90;99.10;;;;;;5100330;28;20027;-69
2023/01/20 05:48:22;;;;;;;2.85;1.33;;;-0.90;98.60;;;;;;5101012;28;20024;-69
2023/01/20 05:50:47;;;;;;;5.03;1.42;;;-0.80;98.20;;;;;;5095599;28;20554;-69
2023/01/20 05:53:13;;;;;;;5.05;1.48;;;-0.50;96.90;;;;;;5097489;28;20432;-69
2023/01/20 05:55:39;;;;;;;3.92;1.67;;;-0.30;96.40;;;;;;5101147;28;20048;-69
2023/01/20 05:58:05;;;;;;;4.07;1.35;;;-0.10;96.50;;;;;;5100779;28;20120;-69
2023/01/20 06:00:31;;;;;;;2.92;1.30;;;-0.20;97.20;;;;;;5099982;28;20028;-69
2023/01/20 06:02:57;;;;;;;3.13;1.60;;;-0.40;97.50;;;;;;5095256;28;20472;-69
2023/01/20 06:05:23;;;;;;;4.07;1.40;;;-0.60;97.70;;;;;;5102149;28;20081;-69
2023/01/20 06:07:48;;;;;;;3.80;1.23;;;-0.50;97.10;;;;;;5097817;28;20054;-69
2023/01/20 06:10:16;;;;;;;7.75;3.42;;;-0.40;96.60;;;;;;5098593;28;20027;-69
2023/01/20 06:12:42;;;;;;;2.97;1.60;;;-0.30;96.70;;;;;;5094766;28;20517;-69
2023/01/20 06:15:09;;;;;;;4.72;1.55;;;-0.40;96.90;;;;;;5099986;28;20042;-69
2023/01/20 06:17:34;;;;;;;3.05;1.30;;;-0.20;95.80;;;;;;5094856;28;20028;-69
2023/01/20 06:20:00;;;;;;;2.58;1.10;;;-0.30;97.70;;;;;;5101072;27;20073;-69
2023/01/20 06:22:26;;;;;;;2.63;1.25;;;-0.50;97.10;;;;;;5096798;28;20036;-69
2023/01/20 06:24:52;;;;;;;1.80;0.93;;;-0.50;96.30;;;;;;5100350;28;20031;-69
2023/01/20 06:27:18;;;;;;;3.05;1.30;;;-0.60;97.10;;;;;;5097699;28;20378;-69
2023/01/20 06:29:44;;;;;;;2.92;1.20;;;-0.40;96.10;;;;;;5096919;28;20047;-69
2023/01/20 06:32:10;;;;;;;3.58;1.27;;;-0.30;95.70;;;;;;5100820;28;20028;-69
2023/01/20 06:34:36;;;;;;;2.00;1.20;;;-0.30;96.30;;;;;;5092197;28;20119;-69
2023/01/20 06:37:02;;;;;;;2.35;1.10;;;-0.40;96.00;;;;;;5096900;28;20055;-69
2023/01/20 06:39:28;;;;;;;2.88;1.33;;;-0.30;95.60;;;;;;5100632;28;20019;-69
2023/01/20 06:41:58;;;;;;;3.72;1.33;;;-0.30;96.20;;;;;;5099969;28;20043;-69
2023/01/20 06:44:25;;;;;;;2.80;1.35;;;-0.50;95.50;;;;;;5098531;28;20066;-70
2023/01/20 06:47:05;;;;;;;2.90;0.90;;;-0.50;95.70;;;;;;5056659;28;20511;-70
2023/01/20 06:49:32;;;;;;;3.30;1.10;;;-0.40;95.60;;;;;;5101601;28;20056;-70
2023/01/20 06:51:58;;;;;;;2.45;1.17;;;-0.30;95.10;;;;;;5095531;28;20115;-69
2023/01/20 06:54:24;;;;;;;3.08;1.33;;;-0.50;96.40;;;;;;5099021;28;20076;-69
2023/01/20 06:56:50;;;;;;;3.53;1.20;;;-0.50;95.50;;;;;;5094649;28;20437;-70
2023/01/20 06:59:15;;;;;;;4.97;1.42;;;-0.30;96.00;;;;;;5085839;28;20062;-69
2023/01/20 07:01:41;;;;;;;4.95;1.75;;;-0.50;96.10;;;;;;5092512;28;20036;-69
2023/01/20 07:04:09;;;;;;;4.40;2.05;;;-0.40;95.90;;;;;;5096042;28;20049;-69
2023/01/20 07:06:39;;;;;;;2.75;1.20;;;-0.60;95.90;;;;;;5092363;28;20531;-69
2023/01/20 07:09:07;;;;;;;4.10;1.90;;;-0.60;96.10;;;;;;5090910;28;20031;-69
2023/01/20 07:11:34;;;;;;;4.38;1.20;;;-0.50;95.80;;;;;;5090121;28;20028;-69
2023/01/20 07:14:01;;;;;;;2.90;1.30;;;-0.50;96.10;;;;;;5089775;28;20023;-69
2023/01/20 07:16:26;;;;;;;2.25;1.20;;;-0.70;96.10;;;;;;5092814;28;20036;-69
2023/01/20 07:18:53;;;;;;;3.28;1.13;;;-0.60;95.60;;;;;;5096725;28;20035;-69
2023/01/20 07:21:19;;;;;;;2.92;1.40;;;-0.60;95.60;;;;;;5092079;28;20047;-69
2023/01/20 07:23:45;;;;;;;2.55;1.08;;;-0.70;95.80;;;;;;5090776;28;20036;-69
2023/01/20 07:26:14;;;;;;;6.00;1.58;;;-0.40;95.00;;;;;;5090902;28;20039;-68
2023/01/20 07:28:41;;;;;;;3.63;1.63;;;-0.40;95.40;;;;;;5087503;28;20104;-68
2023/01/20 07:31:18;;;;;;;5.68;1.55;;;-0.50;95.90;;;;;;5099211;28;20024;-68
2023/01/20 07:33:44;;;;;;;3.75;1.80;;;-0.60;95.70;;;;;;5098325;28;20027;-69
2023/01/20 07:36:12;;;;;;;5.82;1.42;;;-0.40;95.10;;;;;;5098130;28;20052;-68
2023/01/20 07:38:38;;;;;;;2.00;1.08;;;-0.30;95.20;;;;;;5090318;28;20048;-68
2023/01/20 07:41:07;;;;;;;2.95;1.33;;;-0.40;94.80;;;;;;5090990;28;20027;-68
2023/01/20 07:43:33;;;;;;;3.20;1.35;;;-0.30;94.90;;;;;;5093627;28;20041;-68
2023/01/20 07:46:00;;;;;;;6.45;1.20;;;-0.20;94.40;;;;;;5096533;28;20028;-69
2023/01/20 07:48:28;;;;;;;3.20;1.17;;;-0.30;94.70;;;;;;5095106;28;20369;-69
2023/01/20 07:51:00;;;;;;;6.10;2.20;;;-0.40;95.60;;;;;;5083815;28;20054;-68
2023/01/20 07:53:34;;;;;;;6.45;1.63;;;-0.40;95.00;;;;;;5088327;28;20051;-69
2023/01/20 07:56:06;;;;;;;3.05;1.40;;;-0.30;95.40;;;;;;5097538;28;20028;-68
2023/01/20 07:58:32;;;;;;;15.25;8.27;;;-0.50;95.40;;;;;;5097987;28;20035;-69
2023/01/20 08:01:15;;;;;;;10.57;4.40;;;-0.40;95.50;;;;;;5098627;28;20032;-68
2023/01/20 08:03:42;;;;;;;5.90;3.17;;;-0.40;95.60;;;;;;5104316;28;20038;-68
2023/01/20 08:06:10;;;;;;;16.27;9.40;;;-0.40;95.10;;;;;;5104217;28;20091;-68
2023/01/20 08:08:36;;;;;;;6.75;3.63;;;-0.30;94.70;;;;;;5094502;28;20420;-68
2023/01/20 08:11:02;;;;;;;50.65;24.17;;;-0.20;94.30;;;;;;5098414;28;20035;-68
2023/01/20 08:13:29;;;;;;;9.60;4.80;;;-0.10;94.40;;;;;;5093941;28;20032;-68
2023/01/20 08:15:58;;;;;;;38.22;19.85;;;0.10;94.60;;;;;;5091998;28;20792;-68
2023/01/20 08:18:23;;;;;;;87.25;50.33;;;-0.10;94.00;;;;;;5106487;28;20031;-68
2023/01/20 08:20:49;;;;;;;17.50;9.40;;;0.00;94.00;;;;;;5101334;28;20447;-69
2023/01/20 08:23:15;;;;;;;8.65;4.55;;;0.00;94.20;;;;;;5099238;27;20027;-68
2023/01/20 08:25:40;;;;;;;3.95;2.17;;;-0.10;94.40;;;;;;5099230;28;20416;-68
2023/01/20 08:28:06;;;;;;;2.75;1.50;;;-0.10;94.10;;;;;;5096034;28;20067;-68
2023/01/20 08:30:32;;;;;;;3.13;1.60;;;0.00;94.40;;;;;;5097515;28;20109;-68
2023/01/20 08:32:57;;;;;;;5.43;2.60;;;-0.10;93.90;;;;;;5093395;28;20118;-68
2023/01/20 08:35:23;;;;;;;4.57;1.77;;;0.10;93.20;;;;;;5095549;28;20020;-69
2023/01/20 08:37:49;;;;;;;4.10;1.55;;;0.20;93.20;;;;;;5099736;28;20043;-68
2023/01/20 08:40:15;;;;;;;8.95;4.93;;;0.30;92.80;;;;;;5095693;28;20077;-68
2023/01/20 08:42:40;;;;;;;9.32;4.57;;;0.30;93.50;;;;;;5097671;28;20115;-68
2023/01/20 08:45:08;;;;;;;4.13;2.20;;;0.30;92.70;;;;;;5097018;28;20107;-68
2023/01/20 08:47:38;;;;;;;8.70;4.68;;;0.20;95.00;;;;;;5081476;28;20565;-68
2023/01/20 08:50:06;;;;;;;17.20;7.47;;;0.20;94.50;;;;;;5096156;28;20027;-68
2023/01/20 08:52:31;;;;;;;9.32;4.28;;;0.30;93.80;;;;;;5089658;28;20040;-69
2023/01/20 08:54:57;;;;;;;3.50;1.60;;;0.40;94.20;;;;;;5095102;28;20035;-68
2023/01/20 08:57:27;;;;;;;5.53;2.47;;;0.30;93.80;;;;;;5100810;28;20032;-68
2023/01/20 08:59:53;;;;;;;5.00;3.08;;;0.30;94.80;;;;;;5098843;28;20024;-68
2023/01/20 09:02:19;;;;;;;5.97;3.28;;;0.30;94.30;;;;;;5093326;28;20032;-68
2023/01/20 09:04:45;;;;;;;3.35;1.42;;;0.20;93.50;;;;;;5098286;28;20573;-68
2023/01/20 09:07:11;;;;;;;5.22;1.70;;;0.30;93.40;;;;;;5096009;28;20162;-69
2023/01/20 09:09:38;;;;;;;3.28;1.80;;;0.30;93.40;;;;;;5094398;28;20632;-68
2023/01/20 09:12:04;;;;;;;4.68;1.42;;;0.40;93.40;;;;;;5094848;28;20028;-68
2023/01/20 09:14:30;;;;;;;3.90;1.45;;;0.40;92.60;;;;;;5096064;28;20024;-68
2023/01/20 09:16:56;;;;;;;5.00;2.38;;;0.40;93.30;;;;;;5095296;28;20031;-68
2023/01/20 09:19:22;;;;;;;3.60;1.52;;;0.40;93.10;;;;;;5095370;28;20027;-68
2023/01/20 09:21:47;;;;;;;2.90;1.40;;;0.50;93.40;;;;;;5094687;28;20037;-68
2023/01/20 09:24:13;;;;;;;6.80;2.08;;;0.40;93.30;;;;;;5093579;28;20152;-68
2023/01/20 09:26:39;;;;;;;4.30;1.55;;;0.50;93.20;;;;;;5092100;28;20028;-68
2023/01/20 09:29:09;;;;;;;4.80;2.22;;;0.60;93.10;;;;;;5094770;28;20034;-68
2023/01/20 09:31:42;;;;;;;4.45;1.92;;;0.60;92.60;;;;;;5098165;28;20035;-68
2023/01/20 09:34:08;;;;;;;4.07;1.63;;;0.60;93.00;;;;;;5095886;28;20090;-68
2023/01/20 09:36:34;;;;;;;4.18;1.60;;;0.60;92.80;;;;;;5095362;28;20071;-68
2023/01/20 09:44:49;;;;;;;5.70;2.03;;;0.80;93.00;;;;;;5091704;28;20119;-68
2023/01/20 09:47:35;;;;;;;6.03;2.17;;;0.80;93.20;;;;;;5093835;28;20509;-68
2023/01/20 09:53:40;;;;;;;3.90;1.65;;;0.90;92.60;;;;;;5096800;28;20058;-68
2023/01/20 09:56:15;;;;;;;3.05;1.20;;;1.00;93.00;;;;;;5064103;28;20567;-68
2023/01/20 09:58:54;;;;;;;5.93;1.45;;;1.00;92.50;;;;;;5093385;28;20066;-68
2023/01/20 10:01:34;;;;;;;3.47;1.60;;;1.20;92.50;;;;;;5097475;28;20039;-71
2023/01/20 10:04:34;;;;;;;3.92;1.52;;;1.30;92.20;;;;;;5094640;28;20107;-68
2023/01/20 10:07:37;;;;;;;3.58;1.63;;;1.30;91.80;;;;;;5097026;28;20618;-70
2023/01/20 10:10:15;;;;;;;4.93;2.20;;;1.30;92.00;;;;;;5096405;28;20028;-71
2023/01/20 10:12:56;;;;;;;5.22;2.00;;;1.30;91.50;;;;;;5090669;28;20519;-70
2023/01/20 10:15:36;;;;;;;4.55;1.60;;;1.40;91.80;;;;;;5096733;28;20198;-70
2023/01/20 10:18:08;;;;;;;5.03;1.90;;;1.30;92.60;;;;;;5099748;28;20040;-71
2023/01/20 10:20:59;;;;;;;3.45;1.60;;;1.30;92.40;;;;;;5100066;28;20028;-70
2023/01/20 10:23:47;;;;;;;3.67;1.70;;;1.30;91.40;;;;;;5097481;28;20461;-70
2023/01/20 10:26:28;;;;;;;5.05;1.60;;;1.40;91.20;;;;;;5095793;28;20132;-71
2023/01/20 10:29:01;;;;;;;2.88;1.27;;;1.40;91.50;;;;;;5094064;28;20054;-70
2023/01/20 10:31:31;;;;;;;2.92;1.15;;;1.40;91.00;;;;;;5095809;28;20034;-71
2023/01/20 10:34:05;;;;;;;4.28;1.80;;;1.50;91.10;;;;;;5100926;28;20035;-70
2023/01/20 10:36:33;;;;;;;3.58;1.60;;;1.60;91.40;;;;;;5100123;28;20146;-70
2023/01/20 10:39:10;;;;;;;3.97;1.70;;;1.50;90.80;;;;;;5097071;28;20035;-70
2023/01/20 10:41:47;;;;;;;7.05;1.95;;;1.60;91.20;;;;;;5095243;28;20040;-71
2023/01/20 10:44:14;;;;;;;3.90;1.75;;;1.80;90.80;;;;;;5094693;28;20032;-71
2023/01/20 10:46:48;;;;;;;3.75;1.33;;;1.80;90.70;;;;;;5095346;28;20477;-70
2023/01/20 10:49:33;;;;;;;2.80;1.60;;;1.90;90.70;;;;;;5094753;28;20456;-70
2023/01/20 10:52:26;;;;;;;4.55;1.80;;;1.90;90.40;;;;;;5096742;28;20030;-70
2023/01/20 10:55:00;;;;;;;5.80;2.13;;;2.10;90.70;;;;;;5095536;28;20134;-70
2023/01/20 10:57:26;;;;;;;5.32;1.50;;;2.30;91.10;;;;;;5093357;28;20070;-70
2023/01/20 10:59:58;;;;;;;3.05;1.60;;;2.50;90.80;;;;;;5093970;28;20161;-70
2023/01/20 11:02:30;;;;;;;3.78;1.70;;;2.60;90.00;;;;;;5099021;28;20039;-70
2023/01/20 11:05:01;;;;;;;3.38;1.70;;;2.60;89.40;;;;;;5094329;28;20016;-70
2023/01/20 11:07:29;;;;;;;9.05;1.83;;;2.70;90.10;;;;;;5094419;28;20028;-71
2023/01/20 11:09:55;;;;;;;2.60;1.50;;;2.90;90.20;;;;;;5099457;28;20038;-68
2023/01/20 11:12:27;;;;;;;4.55;1.63;;;2.90;88.00;;;;;;5090453;28;20545;-70
2023/01/20 11:14:54;;;;;;;4.22;1.83;;;2.90;88.80;;;;;;5097585;28;20027;-70
2023/01/20 11:17:20;;;;;;;3.65;1.52;;;2.80;87.10;;;;;;5095737;28;20095;-70
2023/01/20 11:19:50;;;;;;;4.97;1.70;;;2.90;87.60;;;;;;5101326;28;20166;-70
2023/01/20 11:22:24;;;;;;;4.18;1.98;;;3.20;88.70;;;;;;5101009;28;20039;-70
2023/01/20 11:24:54;;;;;;;7.40;2.50;;;3.10;86.70;;;;;;5089342;28;20111;-70
2023/01/20 11:27:23;;;;;;;3.40;1.52;;;3.40;86.20;;;;;;5096612;28;20274;-70
2023/01/20 11:30:05;;;;;;;1.83;0.80;;;3.50;86.80;;;;;;5095906;28;20415;-71
2023/01/20 11:32:37;;;;;;;2.50;1.25;;;3.50;85.40;;;;;;5092932;28;20036;-70
2023/01/20 11:35:21;;;;;;;3.85;1.77;;;3.70;85.70;;;;;;5097286;28;20027;-70
2023/01/20 11:37:47;;;;;;;3.45;1.55;;;3.90;87.50;;;;;;5095412;28;20126;-71
2023/01/20 11:40:23;;;;;;;4.20;1.50;;;4.10;86.00;;;;;;5096497;28;20135;-70
2023/01/20 11:42:51;;;;;;;3.58;1.55;;;3.80;84.80;;;;;;5094596;28;20039;-71
2023/01/20 11:45:35;;;;;;;2.75;1.45;;;3.80;85.30;;;;;;5097263;28;20035;-71
2023/01/20 11:48:07;;;;;;;3.72;1.40;;;4.00;86.30;;;;;;5097069;28;20499;-70
2023/01/20 11:50:53;;;;;;;3.53;1.30;;;4.00;85.50;;;;;;5099864;28;20023;-70
2023/01/20 11:53:27;;;;;;;2.38;1.23;;;3.90;86.60;;;;;;5091060;28;20528;-70
2023/01/20 11:55:56;;;;;;;3.72;1.15;;;3.80;84.30;;;;;;5094574;28;20111;-70
2023/01/20 11:58:25;;;;;;;4.13;2.25;;;4.20;84.50;;;;;;5095936;28;20032;-70
2023/01/20 12:00:59;;;;;;;2.88;1.45;;;4.50;85.00;;;;;;5093546;28;20034;-70
2023/01/20 12:03:42;;;;;;;2.47;1.20;;;4.60;83.90;;;;;;5093325;28;20028;-70
2023/01/20 12:06:20;;;;;;;2.75;1.35;;;4.70;83.40;;;;;;5094880;28;20270;-70
2023/01/20 12:08:50;;;;;;;4.05;1.40;;;4.60;82.80;;;;;;5095182;28;20024;-70
2023/01/20 12:11:32;;;;;;;5.63;1.20;;;4.60;84.80;;;;;;5094234;28;20370;-70
2023/01/20 12:14:19;;;;;;;2.65;1.30;;;5.00;84.00;;;;;;5092927;28;20028;-70
2023/01/20 12:16:56;;;;;;;5.25;1.85;;;5.00;83.10;;;;;;5095602;28;20101;-70
2023/01/20 12:19:32;;;;;;;3.83;1.85;;;4.90;84.00;;;;;;5095041;28;20393;-70
2023/01/20 12:22:05;;;;;;;4.65;1.38;;;4.70;82.30;;;;;;5096584;28;20039;-70
2023/01/20 12:25:07;;;;;;;4.35;1.40;;;4.50;83.40;;;;;;5094782;28;20028;-70
2023/01/20 12:27:34;;;;;;;3.35;1.45;;;4.50;82.40;;;;;;5091324;28;20043;-70
2023/01/20 12:30:06;;;;;;;3.25;1.35;;;4.50;82.80;;;;;;5094472;28;20401;-70
2023/01/20 12:32:32;;;;;;;2.70;1.50;;;4.70;83.40;;;;;;5093060;28;20032;-70
2023/01/20 12:34:58;;;;;;;3.05;1.40;;;4.80;82.80;;;;;;5092471;28;20039;-70
2023/01/20 12:38:03;;;;;;;2.60;1.02;;;4.60;81.40;;;;;;5094083;28;20047;-70
2023/01/20 12:40:46;;;;;;;3.88;1.58;;;4.80;82.20;;;;;;5095837;28;20039;-70
2023/01/20 12:43:14;;;;;;;4.80;1.15;;;5.00;83.70;;;;;;5093062;28;20036;-70
2023/01/20 12:46:10;;;;;;;2.63;1.10;;;5.00;80.60;;;;;;5094198;28;20028;-70
2023/01/20 12:48:55;;;;;;;3.72;1.45;;;4.90;79.60;;;;;;5096588;28;20024;-70
2023/01/20 12:51:40;;;;;;;2.78;1.20;;;4.80;79.80;;;;;;5086672;28;20106;-70
2023/01/20 12:54:23;;;;;;;3.45;0.90;;;5.00;80.50;;;;;;5097568;28;20023;-70
2023/01/20 12:56:52;;;;;;;3.25;1.13;;;5.10;79.30;;;;;;5096846;28;20036;-70
2023/01/20 12:59:21;;;;;;;2.47;1.08;;;5.10;79.50;;;;;;5100180;28;20031;-71
2023/01/20 13:02:18;;;;;;;2.75;0.93;;;5.20;80.30;;;;;;5099916;28;20123;-70
2023/01/20 13:05:09;;;;;;;4.57;1.45;;;5.30;79.70;;;;;;5103989;28;20442;-70
2023/01/20 13:07:40;;;;;;;3.00;1.13;;;5.30;80.30;;;;;;5098614;28;20035;-70
2023/01/20 13:10:46;;;;;;;4.35;1.70;;;5.40;79.70;;;;;;5098282;28;20528;-70
2023/01/20 13:13:21;;;;;;;3.45;1.40;;;5.50;80.10;;;;;;5096113;28;20020;-70
2023/01/20 13:15:59;;;;;;;3.67;1.25;;;5.60;79.40;;;;;;5097125;28;20035;-70
2023/01/20 13:18:35;;;;;;;4.03;1.48;;;5.50;79.10;;;;;;5093242;28;20031;-70
2023/01/20 13:21:01;;;;;;;3.83;1.30;;;5.40;78.40;;;;;;5099871;28;20082;-70
2023/01/20 13:23:35;;;;;;;3.22;1.08;;;5.60;79.60;;;;;;5098181;28;20443;-70